Time;durP1;ratioP1;P1;durP2;ratioP2;P2;SDS_P1;SDS_P2;PMS_P1;PMS_P2;Temp;Humidity;BMP_temperature;BMP_pressure;BME280_temperature;BME280_humidity;BME280_pressure;Samples;Min_cycle;Max_cycle;Signal;HPM_P1;HPM_P2
2023/05/01 00:00:47;;;;;;;1.67;1.57;;;;;;;;;;5079654;28;20275;-95
2023/05/01 00:03:18;;;;;;;1.23;1.13;;;;;;;;;;5078647;28;20477;-93
2023/05/01 00:05:46;;;;;;;1.03;1.03;;;;;;;;;;5078796;28;20215;-94
2023/05/01 00:08:14;;;;;;;1.60;1.50;;;;;;;;;;5078707;28;20203;-92
2023/05/01 00:10:49;;;;;;;2.30;1.50;;;;;;;;;;5080275;28;20218;-94
2023/05/01 00:13:27;;;;;;;1.07;1.07;;;;;;;;;;5087762;28;20248;-91
2023/05/01 00:16:04;;;;;;;0.73;0.73;;;;;;;;;;5088867;28;20258;-91
2023/05/01 00:18:43;;;;;;;1.57;0.83;;;;;;;;;;5087537;28;20677;-92
2023/05/01 00:21:11;;;;;;;0.77;0.77;;;;;;;;;;5087977;28;20191;-93
2023/05/01 00:23:41;;;;;;;1.33;0.83;;;;;;;;;;5087270;28;20232;-92
2023/05/01 00:26:12;;;;;;;0.77;0.77;;;;;;;;;;5089733;28;20190;-92
2023/05/01 00:28:42;;;;;;;0.83;0.83;;;;;;;;;;5076499;28;20220;-93
2023/05/01 00:31:13;;;;;;;0.67;0.67;;;;;;;;;;5076968;28;20190;-92
2023/05/01 00:33:41;;;;;;;2.20;1.00;;;;;;;;;;5076728;28;20202;-93
2023/05/01 00:36:10;;;;;;;1.90;1.17;;;;;;;;;;5076006;28;20197;-94
2023/05/01 00:38:40;;;;;;;1.00;1.00;;;;;;;;;;5080198;28;20226;-90
2023/05/01 00:41:10;;;;;;;1.53;1.47;;;;;;;;;;5089756;28;20291;-94
2023/05/01 00:43:38;;;;;;;0.93;0.93;;;;;;;;;;5088619;28;20190;-94
2023/05/01 00:46:11;;;;;;;1.37;0.80;;;;;;;;;;5075906;28;20214;-92
2023/05/01 00:48:41;;;;;;;1.10;1.10;;;;;;;;;;5076394;28;20198;-95
2023/05/01 00:51:12;;;;;;;2.27;2.07;;;;;;;;;;5076401;28;20206;-95
2023/05/01 00:53:40;;;;;;;0.57;0.57;;;;;;;;;;5075667;28;20202;-93
2023/05/01 00:56:18;;;;;;;;;;;;;;;;;;;;;
2023/05/01 00:58:52;;;;;;;1.10;1.00;;;;;;;;;;5083955;28;20218;-93
2023/05/01 01:01:25;;;;;;;1.33;1.33;;;;;;;;;;5082599;28;20186;-95
2023/05/01 01:03:53;;;;;;;0.67;0.67;;;;;;;;;;5081261;28;20223;-93
2023/05/01 01:06:27;;;;;;;1.00;1.00;;;;;;;;;;5080645;28;20194;-93
2023/05/01 01:09:25;;;;;;;0.93;0.93;;;;;;;;;;5083009;28;20211;-93
2023/05/01 01:12:00;;;;;;;1.13;0.93;;;;;;;;;;5102845;22;20316;-95
2023/05/01 01:14:33;;;;;;;0.70;0.70;;;;;;;;;;5087915;28;20194;-93
2023/05/01 01:17:20;;;;;;;1.17;1.17;;;;;;;;;;5083671;28;20550;-94
2023/05/01 01:20:10;;;;;;;0.67;0.67;;;;;;;;;;5088611;28;20234;-91
2023/05/01 01:22:46;;;;;;;0.80;0.77;;;;;;;;;;5090775;28;20213;-93
2023/05/01 01:25:29;;;;;;;1.30;0.80;;;;;;;;;;5095356;28;20180;-91
2023/05/01 01:28:05;;;;;;;1.87;0.90;;;;;;;;;;5054578;28;20246;-93
2023/05/01 01:30:50;;;;;;;0.93;0.93;;;;;;;;;;5096998;28;20178;-93
2023/05/01 01:33:33;;;;;;;1.37;1.27;;;;;;;;;;5096724;28;20210;-95
2023/05/01 01:36:08;;;;;;;0.67;0.67;;;;;;;;;;5086657;28;20209;-92
2023/05/01 01:38:38;;;;;;;0.93;0.93;;;;;;;;;;5075437;28;20225;-93
2023/05/01 01:41:08;;;;;;;1.23;1.23;;;;;;;;;;5075488;28;20186;-92
2023/05/01 01:43:38;;;;;;;1.40;1.27;;;;;;;;;;5075499;28;20177;-94
2023/05/01 01:46:06;;;;;;;1.40;0.73;;;;;;;;;;5075124;28;20191;-92
2023/05/01 01:48:36;;;;;;;1.23;0.80;;;;;;;;;;5074974;28;20281;-92
2023/05/01 01:51:12;;;;;;;1.23;0.67;;;;;;;;;;5075070;28;20282;-94
2023/05/01 01:53:41;;;;;;;3.87;0.80;;;;;;;;;;5074688;28;20221;-95
2023/05/01 01:56:11;;;;;;;0.87;0.83;;;;;;;;;;5074937;28;20202;-93
2023/05/01 01:58:41;;;;;;;0.50;0.50;;;;;;;;;;5074432;28;20326;-93
2023/05/01 02:01:08;;;;;;;1.33;0.90;;;;;;;;;;5075195;28;20195;-91
2023/05/01 02:03:38;;;;;;;0.47;0.47;;;;;;;;;;5075627;28;20567;-94
2023/05/01 02:06:14;;;;;;;0.93;0.93;;;;;;;;;;5074917;28;20206;-93
2023/05/01 02:08:42;;;;;;;1.07;1.03;;;;;;;;;;5079100;28;20217;-95
2023/05/01 02:11:11;;;;;;;0.57;0.57;;;;;;;;;;5083207;28;20245;-92
2023/05/01 02:13:39;;;;;;;1.13;1.00;;;;;;;;;;5085638;28;20198;-93
2023/05/01 02:16:10;;;;;;;1.00;0.93;;;;;;;;;;5085042;28;20198;-92
2023/05/01 02:18:41;;;;;;;2.00;1.53;;;;;;;;;;5082322;28;20221;-92
2023/05/01 02:21:12;;;;;;;1.20;1.13;;;;;;;;;;5085236;28;20690;-94
2023/05/01 02:23:40;;;;;;;2.07;1.00;;;;;;;;;;5084789;28;20267;-91
2023/05/01 02:26:17;;;;;;;0.60;0.60;;;;;;;;;;5080471;28;20745;-93
2023/05/01 02:28:49;;;;;;;0.83;0.70;;;;;;;;;;5078949;28;20198;-94
2023/05/01 02:31:28;;;;;;;1.30;0.87;;;;;;;;;;5080617;28;20191;-95
2023/05/01 02:33:55;;;;;;;1.30;1.30;;;;;;;;;;5079185;28;20201;-92
2023/05/01 02:36:26;;;;;;;0.73;0.73;;;;;;;;;;5078487;28;20203;-94
2023/05/01 02:38:57;;;;;;;2.00;1.90;;;;;;;;;;5079590;28;20547;-93
2023/05/01 02:41:26;;;;;;;1.60;1.50;;;;;;;;;;5079531;28;20343;-94
2023/05/01 02:43:57;;;;;;;0.83;0.83;;;;;;;;;;5081241;28;20260;-93
2023/05/01 02:46:28;;;;;;;0.23;0.20;;;;;;;;;;5086509;28;20221;-92
2023/05/01 02:48:57;;;;;;;1.07;0.87;;;;;;;;;;5092121;28;20198;-94
2023/05/01 02:51:32;;;;;;;1.03;0.93;;;;;;;;;;5079185;28;20285;-95
2023/05/01 02:54:02;;;;;;;0.90;0.90;;;;;;;;;;5078406;28;20198;-93
2023/05/01 02:56:32;;;;;;;1.93;1.47;;;;;;;;;;5078641;28;20325;-95
2023/05/01 02:59:02;;;;;;;2.60;0.77;;;;;;;;;;5080313;28;20210;-95
2023/05/01 03:01:30;;;;;;;0.90;0.90;;;;;;;;;;5084911;28;20199;-93
2023/05/01 03:03:59;;;;;;;1.10;1.00;;;;;;;;;;5084961;28;20203;-92
2023/05/01 03:06:30;;;;;;;2.30;1.50;;;;;;;;;;5078268;28;20199;-93
2023/05/01 03:08:57;;;;;;;6.27;0.90;;;;;;;;;;5078140;28;20213;-94
2023/05/01 03:11:29;;;;;;;0.60;0.60;;;;;;;;;;5077691;28;20313;-93
2023/05/01 03:13:56;;;;;;;5.83;0.83;;;;;;;;;;5078572;28;20707;-94
2023/05/01 03:16:27;;;;;;;1.10;1.00;;;;;;;;;;5078031;28;20281;-92
2023/05/01 03:18:55;;;;;;;0.57;0.57;;;;;;;;;;5078046;28;20226;-92
2023/05/01 03:21:23;;;;;;;1.17;1.10;;;;;;;;;;5078033;28;20587;-95
2023/05/01 03:23:51;;;;;;;1.07;0.50;;;;;;;;;;5078300;28;20642;-94
2023/05/01 03:26:22;;;;;;;0.90;0.90;;;;;;;;;;5078101;28;20210;-93
2023/05/01 03:28:52;;;;;;;1.37;1.27;;;;;;;;;;5077750;28;20256;-92
2023/05/01 03:31:20;;;;;;;1.40;1.40;;;;;;;;;;5077780;28;20206;-93
2023/05/01 03:33:48;;;;;;;0.70;0.70;;;;;;;;;;5078361;28;20205;-93
2023/05/01 03:36:16;;;;;;;3.17;1.33;;;;;;;;;;5077486;28;20194;-94
2023/05/01 03:38:46;;;;;;;0.53;0.53;;;;;;;;;;5077225;28;20190;-91
2023/05/01 03:41:18;;;;;;;0.53;0.53;;;;;;;;;;5076429;28;20199;-93
2023/05/01 03:43:46;;;;;;;2.00;1.10;;;;;;;;;;5080579;28;20194;-94
2023/05/01 03:46:18;;;;;;;0.87;0.87;;;;;;;;;;5092806;28;20229;-92
2023/05/01 03:48:57;;;;;;;0.53;0.53;;;;;;;;;;5092574;28;20198;-94
2023/05/01 03:51:26;;;;;;;0.80;0.80;;;;;;;;;;5080000;28;20637;-91
2023/05/01 03:54:11;;;;;;;1.30;1.30;;;;;;;;;;5078216;28;20198;-93
2023/05/01 03:56:42;;;;;;;1.30;1.30;;;;;;;;;;5079105;28;20248;-92
2023/05/01 03:59:13;;;;;;;2.17;1.77;;;;;;;;;;5079762;28;20233;-93
2023/05/01 04:01:41;;;;;;;4.50;3.23;;;;;;;;;;5078692;28;20247;-93
2023/05/01 04:04:08;;;;;;;2.27;2.17;;;;;;;;;;5076615;28;20211;-93
2023/05/01 04:06:36;;;;;;;3.00;2.80;;;;;;;;;;5077820;28;20200;-93
2023/05/01 04:09:09;;;;;;;3.60;3.30;;;;;;;;;;5077545;28;20206;-92
2023/05/01 04:11:36;;;;;;;2.93;2.67;;;;;;;;;;5078290;28;20238;-93
2023/05/01 04:14:06;;;;;;;2.85;2.63;;;;;;;;;;5077373;28;20729;-92
2023/05/01 04:16:36;;;;;;;2.88;2.13;;;;;;;;;;5077684;28;20263;-93
2023/05/01 04:19:04;;;;;;;3.53;3.22;;;;;;;;;;5076978;28;20220;-94
2023/05/01 04:21:33;;;;;;;4.18;3.70;;;;;;;;;;5078474;28;20224;-93
2023/05/01 04:24:07;;;;;;;3.08;2.88;;;;;;;;;;5078025;28;20217;-93
2023/05/01 04:26:39;;;;;;;3.03;2.83;;;;;;;;;;5078808;28;20198;-93
2023/05/01 04:29:16;;;;;;;3.20;3.00;;;;;;;;;;5078308;28;20209;-94
2023/05/01 04:31:53;;;;;;;4.93;3.70;;;;;;;;;;5084372;28;20198;-92
2023/05/01 04:34:22;;;;;;;3.63;3.33;;;;;;;;;;5077554;28;20290;-91
2023/05/01 04:36:50;;;;;;;3.53;3.22;;;;;;;;;;5076178;28;20195;-94
2023/05/01 04:39:19;;;;;;;3.58;3.30;;;;;;;;;;5076485;28;20309;-92
2023/05/01 04:41:52;;;;;;;3.65;3.45;;;;;;;;;;5075289;28;20203;-94
2023/05/01 04:44:24;;;;;;;3.30;3.08;;;;;;;;;;5076131;28;20203;-95
2023/05/01 04:46:54;;;;;;;3.28;2.83;;;;;;;;;;5076156;28;20198;-94
2023/05/01 04:49:26;;;;;;;4.63;2.78;;;;;;;;;;5078580;28;20221;-94
2023/05/01 04:51:56;;;;;;;2.78;2.67;;;;;;;;;;5077120;28;20205;-92
2023/05/01 04:54:25;;;;;;;3.03;2.80;;;;;;;;;;5076912;28;20194;-93
2023/05/01 04:56:57;;;;;;;2.58;2.47;;;;;;;;;;5077880;28;20199;-94
2023/05/01 04:59:35;;;;;;;3.97;3.38;;;;;;;;;;5076852;28;20230;-91
2023/05/01 05:02:07;;;;;;;2.50;2.40;;;;;;;;;;5077325;28;20258;-93
2023/05/01 05:04:39;;;;;;;3.30;2.97;;;;;;;;;;5076617;28;20260;-92
2023/05/01 05:07:07;;;;;;;2.58;2.47;;;;;;;;;;5077074;28;20202;-92
2023/05/01 05:09:38;;;;;;;2.88;2.78;;;;;;;;;;5077607;28;20202;-94
2023/05/01 05:12:05;;;;;;;3.13;2.97;;;;;;;;;;5075935;28;20266;-92
2023/05/01 05:14:39;;;;;;;3.13;2.92;;;;;;;;;;5075834;28;20214;-93
2023/05/01 05:17:23;;;;;;;6.15;2.80;;;;;;;;;;5076643;28;20219;-91
2023/05/01 05:19:52;;;;;;;3.80;2.60;;;;;;;;;;5076319;28;20230;-92
2023/05/01 05:22:19;;;;;;;3.60;3.38;;;;;;;;;;5075770;28;20263;-92
2023/05/01 05:24:48;;;;;;;2.90;2.70;;;;;;;;;;5076250;28;20253;-94
2023/05/01 05:27:19;;;;;;;3.42;3.17;;;;;;;;;;5076374;28;20213;-94
2023/05/01 05:29:51;;;;;;;4.72;2.40;;;;;;;;;;5077039;28;20191;-96
2023/05/01 05:32:37;;;;;;;2.40;2.30;;;;;;;;;;5077526;28;20278;-93
2023/05/01 05:35:09;;;;;;;2.50;2.40;;;;;;;;;;5076495;28;20198;-94
2023/05/01 05:37:43;;;;;;;2.42;2.33;;;;;;;;;;5078792;28;20269;-93
2023/05/01 05:40:37;;;;;;;2.63;2.53;;;;;;;;;;5082657;28;20262;-93
2023/05/01 05:43:11;;;;;;;2.75;2.55;;;;;;;;;;5082293;28;20210;-92
2023/05/01 05:45:45;;;;;;;3.17;2.95;;;;;;;;;;5080347;28;20203;-92
2023/05/01 05:48:17;;;;;;;2.97;2.78;;;;;;;;;;5094980;28;20194;-91
2023/05/01 05:50:56;;;;;;;;;;;;;;;;;;;;;
2023/05/01 05:56:20;;;;;;;2.63;2.45;;;;;;;;;;5094197;28;20229;-94
2023/05/01 06:02:01;;;;;;;2.92;2.83;;;;;;;;;;5081195;28;20674;-94
2023/05/01 06:04:46;;;;;;;2.40;2.30;;;;;;;;;;5076854;28;20215;-93
2023/05/01 06:07:36;;;;;;;5.22;3.05;;;;;;;;;;4998097;28;20212;-93
2023/05/01 06:10:23;;;;;;;;;;;;;;;;;;;;;
2023/05/01 06:13:00;;;;;;;3.17;2.97;;;;;;;;;;5094578;28;20286;-92
2023/05/01 06:15:33;;;;;;;3.00;2.72;;;;;;;;;;5091940;28;20191;-94
2023/05/01 06:18:08;;;;;;;2.95;2.75;;;;;;;;;;5077144;28;20225;-92
2023/05/01 06:20:47;;;;;;;2.25;2.15;;;;;;;;;;5079475;28;20237;-93
2023/05/01 06:23:29;;;;;;;2.30;2.20;;;;;;;;;;5080642;28;20259;-95
2023/05/01 06:29:04;;;;;;;2.42;2.25;;;;;;;;;;5073775;28;20206;-93
2023/05/01 06:32:07;;;;;;;2.42;2.22;;;;;;;;;;5076813;28;20297;-92
2023/05/01 06:37:40;;;;;;;2.30;2.20;;;;;;;;;;5066890;28;20202;-93
2023/05/01 06:40:47;;;;;;;2.55;2.33;;;;;;;;;;5088575;28;20275;-91
2023/05/01 06:43:41;;;;;;;2.20;2.10;;;;;;;;;;5033673;28;20201;-93
2023/05/01 06:46:17;;;;;;;2.22;2.15;;;;;;;;;;5082262;28;20209;-93
2023/05/01 06:48:48;;;;;;;2.60;2.50;;;;;;;;;;5094227;28;20183;-93
2023/05/01 06:51:26;;;;;;;2.08;1.98;;;;;;;;;;5093090;28;20199;-92
2023/05/01 06:57:23;;;;;;;2.50;2.35;;;;;;;;;;5078580;28;20209;-95
2023/05/01 07:06:11;;;;;;;2.70;2.17;;;;;;;;;;5075774;28;20281;-93
2023/05/01 07:08:43;;;;;;;2.58;2.38;;;;;;;;;;5079760;28;20194;-93
2023/05/01 07:11:25;;;;;;;2.65;2.20;;;;;;;;;;5082714;28;20726;-92
2023/05/01 07:14:11;;;;;;;2.10;2.00;;;;;;;;;;5082201;28;20202;-93
2023/05/01 07:16:50;;;;;;;2.13;2.03;;;;;;;;;;5081987;28;20194;-95
2023/05/01 07:19:23;;;;;;;2.30;2.20;;;;;;;;;;5084055;28;20194;-93
2023/05/01 07:22:24;;;;;;;2.58;2.38;;;;;;;;;;5085587;28;20706;-93
2023/05/01 07:27:59;;;;;;;2.10;2.00;;;;;;;;;;5088526;28;20186;-93
2023/05/01 07:34:02;;;;;;;2.80;2.60;;;;;;;;;;5093080;28;20198;-93
2023/05/01 07:39:51;;;;;;;1.77;1.77;;;;;;;;;;5081236;28;20186;-92
2023/05/01 07:42:53;;;;;;;2.42;1.67;;;;;;;;;;5098306;28;20216;-93
2023/05/01 07:45:45;;;;;;;2.45;2.35;;;;;;;;;;5077538;28;20199;-93
2023/05/01 07:48:47;;;;;;;2.90;2.72;;;;;;;;;;5091266;28;20214;-93
2023/05/01 07:51:41;;;;;;;2.72;2.53;;;;;;;;;;5079690;28;20197;-93
2023/05/01 07:54:26;;;;;;;3.65;2.88;;;;;;;;;;5062955;28;20242;-95
2023/05/01 07:57:11;;;;;;;2.95;2.67;;;;;;;;;;5080777;28;20198;-94
2023/05/01 08:06:22;;;;;;;2.65;2.47;;;;;;;;;;5017015;28;20199;-95
2023/05/01 08:09:11;;;;;;;2.67;2.47;;;;;;;;;;5079898;28;20285;-94
2023/05/01 08:14:43;;;;;;;1.83;1.75;;;;;;;;;;5077748;28;20203;-94
2023/05/01 08:20:14;;;;;;;2.28;2.17;;;;;;;;;;5079038;28;20199;-93
2023/05/01 08:35:15;;;;;;;2.38;2.28;;;;;;;;;;4952544;29;20247;-94
2023/05/01 08:40:45;;;;;;;1.40;1.40;;;;;;;;;;4928340;29;20294;-92
2023/05/01 08:43:20;;;;;;;2.33;2.17;;;;;;;;;;4958635;28;20183;-93
2023/05/01 09:01:34;;;;;;;1.80;0.80;;;;;;;;;;5340570;22;20244;-92
2023/05/01 09:04:24;;;;;;;0.75;0.75;;;;;;;;;;5076368;28;20211;-93
2023/05/01 09:07:01;;;;;;;2.22;1.02;;;;;;;;;;5074498;28;20187;-93
2023/05/01 09:12:44;;;;;;;1.13;1.13;;;;;;;;;;5172833;22;20271;-93
2023/05/01 09:21:33;;;;;;;0.98;0.98;;;;;;;;;;5415423;22;20255;-92
2023/05/01 09:24:21;;;;;;;1.02;1.02;;;;;;;;;;5072335;28;20286;-95
2023/05/01 09:53:46;;;;;;;1.33;1.05;;;;;;;;;;5020636;28;20331;-92
2023/05/01 09:56:38;;;;;;;0.75;0.75;;;;;;;;;;5071346;28;20201;-95
2023/05/01 10:11:59;;;;;;;1.00;1.00;;;;;;;;;;5082963;28;20249;-93
2023/05/01 10:24:09;;;;;;;1.10;1.10;;;;;;;;;;5008831;28;20200;-95
2023/05/01 10:27:09;;;;;;;;;;;;;;;;;;;;;
2023/05/01 10:32:50;;;;;;;1.85;0.85;;;;;;;;;;5084753;22;20254;-94
2023/05/01 10:39:01;;;;;;;0.95;0.95;;;;;;;;;;5025210;28;20268;-94
2023/05/01 10:44:55;;;;;;;1.05;1.05;;;;;;;;;;5087591;28;20271;-95
2023/05/01 10:53:48;;;;;;;1.23;1.23;;;;;;;;;;5078573;28;20198;-95
2023/05/01 11:02:25;;;;;;;0.65;0.65;;;;;;;;;;5078430;28;20253;-95
2023/05/01 11:05:21;;;;;;;0.90;0.90;;;;;;;;;;5085559;28;20207;-93
2023/05/01 11:08:31;;;;;;;0.95;0.95;;;;;;;;;;5083251;28;20284;-96
2023/05/01 11:11:21;;;;;;;8.27;1.00;;;;;;;;;;5083630;28;20219;-93
2023/05/01 11:26:32;;;;;;;0.80;0.70;;;;;;;;;;5030324;28;20453;-92
2023/05/01 11:41:00;;;;;;;0.90;0.90;;;;;;;;;;5035170;28;20206;-94
2023/05/01 11:47:05;;;;;;;0.98;0.98;;;;;;;;;;5036091;28;20202;-95
2023/05/01 11:52:58;;;;;;;0.80;0.80;;;;;;;;;;5080971;28;20214;-95
2023/05/01 11:55:59;;;;;;;0.90;0.90;;;;;;;;;;5082606;28;20198;-95
2023/05/01 11:58:50;;;;;;;0.88;0.88;;;;;;;;;;5075233;28;20198;-94
2023/05/01 12:01:43;;;;;;;1.98;1.02;;;;;;;;;;5072623;28;20245;-93
2023/05/01 12:04:43;;;;;;;0.90;0.90;;;;;;;;;;5074322;28;20281;-94
2023/05/01 12:16:04;;;;;;;0.95;0.95;;;;;;;;;;5079232;28;20203;-94
2023/05/01 12:19:04;;;;;;;1.73;1.30;;;;;;;;;;5079817;28;20229;-96
2023/05/01 12:21:41;;;;;;;0.70;0.70;;;;;;;;;;5082697;28;20235;-95
2023/05/01 12:24:20;;;;;;;0.50;0.50;;;;;;;;;;5081883;28;20209;-93
2023/05/01 12:27:08;;;;;;;0.57;0.57;;;;;;;;;;5081154;28;20646;-95
2023/05/01 12:29:53;;;;;;;0.90;0.90;;;;;;;;;;5081435;28;20211;-94
2023/05/01 12:32:42;;;;;;;;;;;;;;;;;;;;;
2023/05/01 12:38:40;;;;;;;0.50;0.50;;;;;;;;;;5076266;28;20205;-94
2023/05/01 12:41:22;;;;;;;0.50;0.45;;;;;;;;;;5086757;28;20245;-92
2023/05/01 12:44:37;;;;;;;;;;;;;;;;;;;;;
2023/05/01 12:47:14;;;;;;;0.60;0.60;;;;;;;;;;5095874;28;20185;-93
2023/05/01 12:49:47;;;;;;;0.70;0.70;;;;;;;;;;5096368;28;20270;-94
2023/05/01 12:52:30;;;;;;;;;;;;;;;;;;;;;
2023/05/01 12:55:17;;;;;;;0.82;0.82;;;;;;;;;;5081781;28;20205;-94
2023/05/01 12:58:16;;;;;;;0.50;0.50;;;;;;;;;;5078251;28;20625;-95
2023/05/01 13:01:16;;;;;;;0.63;0.60;;;;;;;;;;5062496;28;20201;-92
2023/05/01 13:03:50;;;;;;;0.60;0.60;;;;;;;;;;5083083;28;20190;-93
2023/05/01 13:06:42;;;;;;;;;;;;;;;;;;;;;
2023/05/01 13:09:14;;;;;;;0.50;0.50;;;;;;;;;;5078971;28;20353;-94
2023/05/01 13:12:03;;;;;;;0.52;0.52;;;;;;;;;;5078095;28;20222;-95
2023/05/01 13:14:40;;;;;;;0.30;0.30;;;;;;;;;;5079229;28;20692;-95
2023/05/01 13:20:51;;;;;;;0.50;0.50;;;;;;;;;;5050981;28;20210;-93
2023/05/01 13:27:10;;;;;;;;;;;;;;;;;;;;;
2023/05/01 13:33:13;;;;;;;0.30;0.30;;;;;;;;;;5050178;28;20203;-92
2023/05/01 13:39:20;;;;;;;0.95;0.95;;;;;;;;;;5056507;28;20256;-93
2023/05/01 13:42:02;;;;;;;0.40;0.40;;;;;;;;;;5073801;28;20195;-93
2023/05/01 13:45:05;;;;;;;;;;;;;;;;;;;;;
2023/05/01 13:47:39;;;;;;;0.60;0.57;;;;;;;;;;5091580;28;20234;-91
2023/05/01 13:50:21;;;;;;;2.92;0.70;;;;;;;;;;5091228;28;20194;-94
2023/05/01 13:53:00;;;;;;;0.88;0.88;;;;;;;;;;5090593;28;20197;-94
2023/05/01 14:01:32;;;;;;;0.70;0.70;;;;;;;;;;5127398;22;20238;-94
2023/05/01 14:04:11;;;;;;;0.50;0.50;;;;;;;;;;5062934;28;20277;-94
2023/05/01 14:06:53;;;;;;;0.70;0.70;;;;;;;;;;5063139;28;20306;-95
2023/05/01 14:09:27;;;;;;;0.82;0.82;;;;;;;;;;5060335;28;20309;-93
2023/05/01 14:15:02;;;;;;;1.58;0.57;;;;;;;;;;5062805;28;20314;-94
2023/05/01 14:20:36;;;;;;;0.50;0.50;;;;;;;;;;5063885;28;20210;-93
2023/05/01 14:23:24;;;;;;;;;;;;;;;;;;;;;
2023/05/01 14:26:06;;;;;;;0.40;0.40;;;;;;;;;;5067574;28;20205;-95
2023/05/01 14:28:58;;;;;;;0.57;0.57;;;;;;;;;;5065767;28;20205;-94
2023/05/01 14:31:41;;;;;;;0.75;0.45;;;;;;;;;;5062793;28;20191;-94
2023/05/01 14:34:19;;;;;;;0.40;0.40;;;;;;;;;;5062315;28;20237;-94
2023/05/01 14:37:01;;;;;;;0.55;0.55;;;;;;;;;;5062375;28;20285;-95
2023/05/01 14:45:44;;;;;;;0.60;0.60;;;;;;;;;;5056798;28;20256;-95
2023/05/01 14:48:33;;;;;;;0.57;0.57;;;;;;;;;;5001268;28;20358;-96
2023/05/01 14:51:22;;;;;;;0.47;0.47;;;;;;;;;;4990762;28;20265;-95
2023/05/01 14:53:54;;;;;;;0.63;0.63;;;;;;;;;;5057465;28;20283;-95
2023/05/01 14:59:40;;;;;;;;;;;;;;;;;;;;;
2023/05/01 15:02:17;;;;;;;1.45;0.60;;;;;;;;;;5080674;28;20198;-93
2023/05/01 15:04:50;;;;;;;0.40;0.40;;;;;;;;;;5087773;28;20252;-92
2023/05/01 15:07:38;;;;;;;0.50;0.50;;;;;;;;;;5083022;28;20262;-94
2023/05/01 15:10:21;;;;;;;0.60;0.60;;;;;;;;;;5083212;28;20729;-94
2023/05/01 15:12:56;;;;;;;0.45;0.45;;;;;;;;;;5065603;28;20197;-94
2023/05/01 15:15:28;;;;;;;0.70;0.70;;;;;;;;;;5083959;28;20277;-94
2023/05/01 15:18:19;;;;;;;;;;;;;;;;;;;;;
2023/05/01 15:21:01;;;;;;;;;;;;;;;;;;;;;
2023/05/01 15:23:53;;;;;;;0.82;0.82;;;;;;;;;;5082177;28;20244;-94
2023/05/01 15:26:41;;;;;;;0.93;0.65;;;;;;;;;;5082437;28;20201;-93
2023/05/01 15:29:23;;;;;;;0.75;0.75;;;;;;;;;;5126108;22;20328;-93
2023/05/01 15:37:44;;;;;;;;;;;;;;;;;;;;;
2023/05/01 15:46:25;;;;;;;1.73;0.60;;;;;;;;;;4966004;28;20207;-94
2023/05/01 15:55:23;;;;;;;0.73;0.73;;;;;;;;;;5077180;28;20198;-92
2023/05/01 16:00:55;;;;;;;0.70;0.70;;;;;;;;;;5088408;28;20208;-92
2023/05/01 16:03:39;;;;;;;0.63;0.63;;;;;;;;;;5085668;28;20263;-93
2023/05/01 16:06:48;;;;;;;0.60;0.60;;;;;;;;;;5093214;28;20216;-92
2023/05/01 16:09:34;;;;;;;0.80;0.80;;;;;;;;;;5087940;28;20201;-93
2023/05/01 16:15:26;;;;;;;1.02;0.90;;;;;;;;;;5045769;28;20314;-93
2023/05/01 16:18:16;;;;;;;3.05;0.93;;;;;;;;;;5082252;28;20211;-93
2023/05/01 16:24:14;;;;;;;0.85;0.85;;;;;;;;;;5082080;28;20215;-95
2023/05/01 16:32:33;;;;;;;0.88;0.88;;;;;;;;;;5063025;28;20265;-94
2023/05/01 16:35:23;;;;;;;0.80;0.80;;;;;;;;;;5064283;28;20206;-91
2023/05/01 16:38:10;;;;;;;1.50;1.00;;;;;;;;;;5021515;28;20248;-94
2023/05/01 16:40:43;;;;;;;0.88;0.88;;;;;;;;;;5020778;28;20278;-95
2023/05/01 16:43:16;;;;;;;0.90;0.80;;;;;;;;;;5054811;28;20254;-95
2023/05/01 16:48:36;;;;;;;0.90;0.90;;;;;;;;;;5063550;28;20205;-93
2023/05/01 16:51:19;;;;;;;0.90;0.90;;;;;;;;;;5066565;28;20198;-94
2023/05/01 16:54:10;;;;;;;1.15;0.85;;;;;;;;;;5060468;28;20202;-92
2023/05/01 16:56:53;;;;;;;1.10;1.00;;;;;;;;;;5058133;28;20201;-93
2023/05/01 16:59:23;;;;;;;1.60;0.77;;;;;;;;;;5064013;28;20206;-94
2023/05/01 17:02:17;;;;;;;0.70;0.70;;;;;;;;;;5064487;28;20200;-94
2023/05/01 17:11:18;;;;;;;2.70;0.77;;;;;;;;;;5049146;28;20246;-94
2023/05/01 17:14:14;;;;;;;1.13;1.13;;;;;;;;;;5060197;28;20205;-93
2023/05/01 17:20:03;;;;;;;;;;;;;;;;;;;;;
2023/05/01 17:22:58;;;;;;;0.90;0.90;;;;;;;;;;5063647;28;20658;-93
2023/05/01 17:31:39;;;;;;;1.43;1.37;;;;;;;;;;5034624;28;20636;-95
2023/05/01 17:34:40;;;;;;;1.00;0.80;;;;;;;;;;5083876;28;20199;-93
2023/05/01 17:46:59;;;;;;;0.70;0.70;;;;;;;;;;5014906;28;20204;-95
2023/05/01 18:04:52;;;;;;;;;;;;;;;;;;;;;
2023/05/01 18:08:01;;;;;;;0.50;0.50;;;;;;;;;;5023889;28;20198;-94
2023/05/01 18:10:40;;;;;;;0.77;0.77;;;;;;;;;;5019786;28;20593;-92
2023/05/01 18:19:03;;;;;;;0.70;0.70;;;;;;;;;;5115727;22;20268;-96
2023/05/01 18:22:00;;;;;;;1.13;0.97;;;;;;;;;;5058848;28;20202;-95
2023/05/01 18:27:43;;;;;;;0.77;0.77;;;;;;;;;;5057834;28;20253;-95
2023/05/01 18:33:45;;;;;;;0.80;0.80;;;;;;;;;;5023101;28;20656;-95
2023/05/01 18:36:22;;;;;;;2.37;0.97;;;;;;;;;;5060680;28;20203;-94
2023/05/01 18:39:11;;;;;;;1.20;0.90;;;;;;;;;;5060429;28;20233;-93
2023/05/01 18:41:53;;;;;;;0.67;0.67;;;;;;;;;;5062267;28;20203;-94
2023/05/01 19:03:43;;;;;;;;;;;;;;;;;;;;;
2023/05/01 19:12:24;;;;;;;1.10;1.10;;;;;;;;;;5005122;28;20250;-95
2023/05/01 19:15:27;;;;;;;1.33;1.30;;;;;;;;;;5006138;28;20295;-95
2023/05/01 19:30:38;;;;;;;1.83;1.37;;;;;;;;;;4918975;28;20205;-95
2023/05/01 19:33:37;;;;;;;3.40;1.00;;;;;;;;;;5075499;28;20196;-95
2023/05/01 19:36:39;;;;;;;1.37;1.27;;;;;;;;;;5037835;28;20288;-93
2023/05/01 19:51:52;;;;;;;;;;;;;;;;;;;;;
2023/05/01 19:55:04;;;;;;;;;;;;;;;;;;;;;
2023/05/01 20:04:08;;;;;;;0.70;0.70;;;;;;;;;;5073991;28;20289;-95
2023/05/01 20:12:59;;;;;;;0.80;0.80;;;;;;;;;;5114671;22;20256;-94
2023/05/01 20:18:52;;;;;;;0.77;0.60;;;;;;;;;;5055743;28;20230;-95
2023/05/01 20:30:34;;;;;;;0.67;0.67;;;;;;;;;;5083437;28;20201;-94
2023/05/01 20:40:27;;;;;;;1.00;1.00;;;;;;;;;;5064557;28;20231;-91
2023/05/01 20:43:22;;;;;;;1.00;1.00;;;;;;;;;;5073046;28;20205;-91
2023/05/01 20:48:47;;;;;;;2.20;0.83;;;;;;;;;;5155542;22;20219;-95
2023/05/01 20:57:15;;;;;;;0.90;0.90;;;;;;;;;;5032752;28;20204;-95
2023/05/01 21:00:05;;;;;;;0.67;0.67;;;;;;;;;;5038250;28;20207;-93
2023/05/01 21:05:46;;;;;;;0.73;0.73;;;;;;;;;;5038172;28;20209;-93
2023/05/01 21:08:25;;;;;;;0.80;0.80;;;;;;;;;;5041316;28;20203;-96
2023/05/01 21:14:08;;;;;;;1.20;1.20;;;;;;;;;;5036061;28;20206;-95
2023/05/01 21:16:43;;;;;;;0.87;0.87;;;;;;;;;;5041429;28;20613;-95
2023/05/01 21:19:24;;;;;;;1.43;1.43;;;;;;;;;;5040331;28;20196;-94
2023/05/01 21:22:13;;;;;;;1.43;0.93;;;;;;;;;;5039286;28;20277;-94
2023/05/01 21:30:46;;;;;;;1.23;1.17;;;;;;;;;;5036855;28;20264;-95
2023/05/01 21:33:44;;;;;;;0.80;0.80;;;;;;;;;;5039079;28;20196;-94
2023/05/01 21:42:06;;;;;;;1.20;1.10;;;;;;;;;;5035852;28;20288;-94
2023/05/01 21:47:30;;;;;;;0.83;0.83;;;;;;;;;;5006537;28;20316;-93
2023/05/01 21:50:02;;;;;;;0.80;0.80;;;;;;;;;;5022217;28;20208;-93
2023/05/01 21:52:36;;;;;;;2.53;0.83;;;;;;;;;;5022880;28;20283;-95
2023/05/01 21:55:10;;;;;;;1.47;1.37;;;;;;;;;;5022817;28;20245;-94
2023/05/01 22:00:58;;;;;;;1.10;1.10;;;;;;;;;;5014689;28;20321;-95
2023/05/01 22:06:32;;;;;;;0.80;0.80;;;;;;;;;;5020808;28;20190;-94
2023/05/01 22:09:09;;;;;;;0.70;0.70;;;;;;;;;;5023044;28;20198;-95
2023/05/01 22:11:47;;;;;;;1.27;1.20;;;;;;;;;;5022066;28;20227;-94
2023/05/01 22:14:23;;;;;;;2.40;1.40;;;;;;;;;;5022485;28;20203;-95
2023/05/01 22:19:57;;;;;;;1.10;1.10;;;;;;;;;;5022187;28;20197;-95
2023/05/01 22:22:35;;;;;;;1.17;1.17;;;;;;;;;;5022066;28;20293;-94
2023/05/01 22:25:12;;;;;;;1.17;1.17;;;;;;;;;;5020845;28;20313;-93
2023/05/01 22:27:42;;;;;;;0.73;0.73;;;;;;;;;;5021816;28;20208;-93
2023/05/01 22:30:38;;;;;;;1.20;1.20;;;;;;;;;;5022005;28;20225;-93
2023/05/01 22:36:13;;;;;;;1.77;1.67;;;;;;;;;;5016336;28;20225;-94
2023/05/01 22:39:03;;;;;;;0.90;0.90;;;;;;;;;;5028941;28;20292;-92
2023/05/01 22:41:41;;;;;;;1.43;1.27;;;;;;;;;;5025665;28;20242;-95
2023/05/01 22:44:32;;;;;;;0.97;0.97;;;;;;;;;;5024283;28;20258;-95
2023/05/01 22:47:02;;;;;;;1.23;1.13;;;;;;;;;;5023581;28;20262;-92
2023/05/01 22:49:34;;;;;;;0.90;0.90;;;;;;;;;;5025907;28;20205;-94
2023/05/01 22:52:21;;;;;;;1.23;1.13;;;;;;;;;;5025153;28;20322;-95
2023/05/01 22:54:54;;;;;;;1.00;1.00;;;;;;;;;;5023796;28;20319;-94
2023/05/01 22:57:33;;;;;;;1.07;1.07;;;;;;;;;;5023210;28;20193;-94
2023/05/01 23:00:22;;;;;;;1.83;1.30;;;;;;;;;;5023051;28;20283;-94
2023/05/01 23:02:53;;;;;;;1.10;0.90;;;;;;;;;;5023307;28;20263;-93
2023/05/01 23:05:21;;;;;;;1.03;1.03;;;;;;;;;;5021850;28;20211;-93
2023/05/01 23:07:50;;;;;;;1.20;1.07;;;;;;;;;;5020753;28;20247;-93
2023/05/01 23:10:26;;;;;;;1.20;1.20;;;;;;;;;;5026989;28;20288;-93
2023/05/01 23:13:08;;;;;;;;;;;;;;;;;;;;;
2023/05/01 23:15:59;;;;;;;;;;;;;;;;;;;;;
2023/05/01 23:18:31;;;;;;;1.17;1.07;;;;;;;;;;5023428;28;20280;-94
2023/05/01 23:21:05;;;;;;;0.80;0.80;;;;;;;;;;5021735;28;20200;-92
2023/05/01 23:23:38;;;;;;;1.00;1.00;;;;;;;;;;5021587;28;20208;-94
2023/05/01 23:26:10;;;;;;;1.17;1.17;;;;;;;;;;5018960;28;20204;-93
2023/05/01 23:28:56;;;;;;;1.50;1.13;;;;;;;;;;5019643;28;20200;-95
2023/05/01 23:31:33;;;;;;;0.70;0.70;;;;;;;;;;5019991;28;20219;-93
2023/05/01 23:34:04;;;;;;;1.60;1.50;;;;;;;;;;5018439;28;20232;-93
2023/05/01 23:39:18;;;;;;;1.60;1.60;;;;;;;;;;5020405;28;20205;-95